createdAt,value
2019-04-25T00:00:28.438Z,51.4
2019-04-25T00:05:31.086Z,51.4
2019-04-25T00:10:33.282Z,51.3
2019-04-25T00:15:35.762Z,51
2019-04-25T00:20:38.910Z,50.6
2019-04-25T00:25:44.351Z,50.6
2019-04-25T00:30:43.758Z,50.8
2019-04-25T00:35:45.723Z,50.2
2019-04-25T00:40:48.089Z,49.3
2019-04-25T00:45:51.590Z,49
2019-04-25T00:50:54.503Z,48.8
2019-04-25T00:55:55.267Z,48.8
2019-04-25T01:00:57.805Z,48.9
2019-04-25T01:06:03.328Z,49.1
2019-04-25T01:11:02.627Z,49.4
2019-04-25T01:16:05.050Z,49.3
2019-04-25T01:21:07.458Z,49.4
2019-04-25T01:26:09.934Z,49.6
2019-04-25T01:31:13.706Z,49.7
2019-04-25T01:36:14.796Z,49.5
2019-04-25T01:41:17.232Z,49.2
2019-04-25T01:46:19.650Z,48.9
2019-04-25T01:51:23.843Z,48.5
2019-04-25T01:56:24.824Z,48.1
2019-04-25T02:01:26.970Z,47.7
2019-04-25T02:06:29.414Z,47.7
2019-04-25T02:11:31.920Z,47.6
2019-04-25T02:16:35.345Z,47.8
2019-04-25T02:21:36.761Z,47.9
2019-04-25T02:26:39.171Z,48.1
2019-04-25T02:31:41.638Z,48.4
2019-04-25T02:36:46.818Z,48.5
2019-04-25T02:41:46.532Z,48.8
2019-04-25T02:46:48.926Z,49.3
2019-04-25T02:51:51.570Z,49.4
2019-04-25T02:56:54.681Z,49.5
2019-04-25T03:01:57.519Z,49.7
2019-04-25T03:07:00.165Z,49.8
2019-04-25T03:12:01.702Z,49.9
2019-04-25T03:17:05.170Z,49.9
2019-04-25T03:22:09.260Z,49.9
2019-04-25T03:27:09.136Z,50
2019-04-25T03:32:14.223Z,50.1
2019-04-25T03:37:13.786Z,50.5
2019-04-25T03:42:15.765Z,50.8
2019-04-25T03:47:18.277Z,51.1
2019-04-25T03:57:23.354Z,51
2019-04-25T04:02:25.551Z,50.9
2019-04-25T04:07:27.960Z,50.8
2019-04-25T04:12:30.445Z,51.1
2019-04-25T04:17:33.854Z,51.4
2019-04-25T04:22:35.352Z,51.5
2019-04-25T04:27:37.857Z,51.6
2019-04-25T04:32:40.159Z,51.8
2019-04-25T04:37:43.133Z,51.9
2019-04-25T04:42:45.298Z,51.5
2019-04-25T04:47:47.485Z,51.5
2019-04-25T04:52:49.931Z,51.5
2019-04-25T04:57:52.354Z,51.6
2019-04-25T05:02:54.810Z,52
2019-04-25T05:07:57.319Z,52.3
2019-04-25T05:12:59.754Z,52.5
2019-04-25T05:18:03.852Z,52.6
2019-04-25T05:23:04.666Z,52.8
2019-04-25T05:33:09.450Z,53.7
2019-04-25T05:38:13.482Z,53.8
2019-04-25T05:43:15.073Z,53.8
2019-04-25T05:48:17.173Z,53.6
2019-04-25T05:53:19.777Z,53.7
2019-04-25T05:58:22.806Z,53.5
2019-04-25T06:03:25.231Z,53.3
2019-04-25T06:08:26.836Z,53.1
2019-04-25T06:13:29.082Z,53
2019-04-25T06:18:32.037Z,53.1
2019-04-25T06:23:34.102Z,53.2
2019-04-25T06:28:48.963Z,53.7
2019-04-25T06:33:38.736Z,54.3
2019-04-25T06:38:41.350Z,54.3
2019-04-25T06:43:44.203Z,54.1
2019-04-25T06:48:46.485Z,52.9
2019-04-25T06:58:50.962Z,53.5
2019-04-25T07:03:53.977Z,53.6
2019-04-25T07:08:56.047Z,53.4
2019-04-25T07:13:58.262Z,53.2
2019-04-25T07:19:01.158Z,53.1
2019-04-25T07:24:04.141Z,52.8
2019-04-25T07:29:05.655Z,52.5
2019-04-25T07:34:08.252Z,52.7
2019-04-25T07:39:10.981Z,53
2019-04-25T07:44:14.632Z,52.7
2019-04-25T07:49:15.377Z,51.1
2019-04-25T07:54:17.784Z,50.3
2019-04-25T07:59:20.298Z,47.8
2019-04-25T08:04:23.559Z,47
2019-04-25T08:09:25.285Z,47.1
2019-04-25T08:14:28.528Z,46.8
2019-04-25T08:19:30.952Z,46.1
2019-04-25T08:24:34.834Z,45.7
2019-04-25T08:29:37.906Z,45
2019-04-25T08:34:37.408Z,44.3
2019-04-25T08:39:39.856Z,44.2
2019-04-25T08:44:43.681Z,44.3
2019-04-25T08:49:45.897Z,44.2
2019-04-25T08:54:47.636Z,44.7
2019-04-25T08:59:52.564Z,45.1
2019-04-25T09:09:54.527Z,45.2
2019-04-25T09:14:56.846Z,44.9
2019-04-25T09:20:00.315Z,45.4
2019-04-25T09:25:01.766Z,45.4
2019-04-25T09:30:05.741Z,44.6
2019-04-25T09:35:06.629Z,44.8
2019-04-25T09:40:09.527Z,43.3
2019-04-25T09:45:13.314Z,42.7
2019-04-25T09:50:13.990Z,42.1
2019-04-25T09:55:16.440Z,41.2
2019-04-25T10:00:19.175Z,39.6
2019-04-25T10:05:21.251Z,38
2019-04-25T10:10:24.153Z,38.4
2019-04-25T10:15:26.184Z,37.9
2019-04-25T10:20:28.960Z,36.9
2019-04-25T10:25:31.082Z,36.9
2019-04-25T10:30:34.271Z,37.1
2019-04-25T10:35:46.576Z,36.8
2019-04-25T10:40:39.315Z,36.7
2019-04-25T10:45:42.096Z,37
2019-04-25T10:50:43.878Z,37
2019-04-25T10:55:47.596Z,36.7
2019-04-25T11:00:48.658Z,36.2
2019-04-25T11:05:50.595Z,35.8
2019-04-25T11:10:54.593Z,35.3
2019-04-25T11:15:56.130Z,34.8
2019-04-25T11:20:57.904Z,35.2
2019-04-25T11:31:04.092Z,33.5
2019-04-25T11:36:05.224Z,34.7
2019-04-25T11:41:08.007Z,33.5
2019-04-25T11:46:11.554Z,34
2019-04-25T11:51:13.813Z,35.1
2019-04-25T11:56:18.999Z,34.3
2019-04-25T12:01:17.484Z,34.2
2019-04-25T12:06:19.813Z,33.4
2019-04-25T12:11:23.488Z,32.2
2019-04-25T12:16:24.782Z,31.1
2019-04-25T12:21:27.257Z,30.9
2019-04-25T12:26:29.794Z,31
2019-04-25T12:31:32.014Z,31.5
2019-04-25T12:36:34.461Z,31.3
2019-04-25T12:41:36.952Z,31.1
2019-04-25T12:46:39.428Z,29.8
2019-04-25T12:51:41.785Z,30
2019-04-25T12:56:44.246Z,29.1
2019-04-25T13:01:46.706Z,28.1
2019-04-25T13:06:49.111Z,28.7
2019-04-25T13:11:53.285Z,27.6
2019-04-25T13:16:53.982Z,27.6
2019-04-25T13:21:57.042Z,27.4
2019-04-25T13:26:58.908Z,27.7
2019-04-25T13:32:01.503Z,28.2
2019-04-25T13:37:05.228Z,26.8
2019-04-25T13:42:06.727Z,26.2
2019-04-25T13:47:08.875Z,25.5
2019-04-25T13:52:11.167Z,25.1
2019-04-25T13:57:13.551Z,24.4
2019-04-25T14:02:16.097Z,24.9
2019-04-25T14:07:18.544Z,24
2019-04-25T14:12:21.417Z,24.2
2019-04-25T14:17:24.729Z,24.5
2019-04-25T14:22:25.741Z,24.7
2019-04-25T14:27:37.880Z,22.8
2019-04-25T14:32:30.618Z,22.8
2019-04-25T14:37:39.166Z,22.3
2019-04-25T14:42:35.752Z,22
2019-04-25T14:47:38.192Z,21.6
2019-04-25T14:52:40.825Z,21.2
2019-04-25T14:57:42.982Z,22.2
2019-04-25T15:02:45.520Z,22.5
2019-04-25T15:07:48.290Z,22.9
2019-04-25T15:12:50.186Z,23
2019-04-25T15:17:52.657Z,23.3
2019-04-25T15:22:55.059Z,23.1
2019-04-25T15:27:57.778Z,22.4
2019-04-25T15:32:59.958Z,21.7
2019-04-25T15:38:02.429Z,21.5
2019-04-25T15:43:04.891Z,21.7
2019-04-25T15:53:09.996Z,23.2
2019-04-25T15:58:12.230Z,24.2
2019-04-25T16:03:14.594Z,24.7
2019-04-25T16:08:17.031Z,25.1
2019-04-25T16:13:19.479Z,25
2019-04-25T16:18:21.919Z,25
2019-04-25T16:23:24.353Z,25.4
2019-04-25T16:28:27.552Z,25.7
2019-04-25T16:33:29.276Z,26.5
2019-04-25T16:38:31.688Z,27.3
2019-04-25T16:48:36.736Z,28.4
2019-04-25T16:53:39.983Z,28.9
2019-04-25T16:58:41.468Z,29.2
2019-04-25T17:03:43.885Z,29.7
2019-04-25T17:08:46.454Z,30
2019-04-25T17:13:48.787Z,30
2019-04-25T17:18:51.211Z,30.6
2019-04-25T17:23:53.689Z,31.3
2019-04-25T17:28:56.132Z,32.2
2019-04-25T17:33:58.544Z,32.7
2019-04-25T17:39:01.009Z,33
2019-04-25T17:44:03.794Z,33.6
2019-04-25T17:49:05.864Z,34.1
2019-04-25T17:54:08.356Z,34.7
2019-04-25T17:59:10.741Z,35.1
2019-04-25T18:04:13.206Z,35.6
2019-04-25T18:09:15.655Z,35.9
2019-04-25T18:14:18.057Z,36.4
2019-04-25T18:19:20.584Z,36.7
2019-04-25T18:24:22.960Z,37.3
2019-04-25T18:29:25.399Z,37.7
2019-04-25T18:34:27.884Z,38.2
2019-04-25T18:39:30.338Z,38.2
2019-04-25T18:44:32.824Z,38.5
2019-04-25T18:49:36.337Z,38.6
2019-04-25T18:54:37.612Z,39
2019-04-25T18:59:40.126Z,39.3
2019-04-25T19:04:42.541Z,39.4
2019-04-25T19:09:45.014Z,39.6
2019-04-25T19:14:47.776Z,39.9
2019-04-25T19:19:49.990Z,40.3
2019-04-25T19:24:52.269Z,40.5
2019-04-25T19:29:54.728Z,40.5
2019-04-25T19:34:57.133Z,41
2019-04-25T19:39:59.815Z,41.1
2019-04-25T19:45:02.407Z,41.7
2019-04-25T19:50:04.632Z,41.9
2019-04-25T19:55:07.032Z,42.1
2019-04-25T20:00:09.339Z,42.2
2019-04-25T20:05:11.892Z,42.4
2019-04-25T20:10:14.246Z,42.6
2019-04-25T20:15:16.983Z,43
2019-04-25T20:20:19.118Z,43.3
2019-04-25T20:25:21.832Z,43.4
2019-04-25T20:30:24.016Z,43.6
2019-04-25T20:35:26.491Z,44.4
2019-04-25T20:40:28.919Z,44.7
2019-04-25T20:45:31.640Z,44.8
2019-04-25T20:50:33.767Z,44.9
2019-04-25T21:00:39.934Z,45.4
2019-04-25T21:05:41.085Z,45.6
2019-04-25T21:10:43.589Z,45.9
2019-04-25T21:15:45.963Z,45.9
2019-04-25T21:20:48.413Z,46
2019-04-25T21:25:51.588Z,46
2019-04-25T21:30:56.784Z,46.2
2019-04-25T21:35:55.993Z,46.3
2019-04-25T21:40:58.150Z,46.3
2019-04-25T21:46:01.287Z,46.4
2019-04-25T21:51:03.475Z,46.3
2019-04-25T21:56:06.879Z,46.5
2019-04-25T22:01:07.916Z,46.7
2019-04-25T22:06:10.450Z,46.7
2019-04-25T22:11:12.803Z,46.9
2019-04-25T22:16:15.367Z,47.2
2019-04-25T22:21:17.677Z,47.2
2019-04-25T22:26:20.188Z,47.2
2019-04-25T22:31:22.662Z,47.2
2019-04-25T22:36:25.030Z,47.4
2019-04-25T22:41:27.475Z,47.4
2019-04-25T22:46:29.942Z,47.3
2019-04-25T22:51:32.321Z,47.4
2019-04-25T22:56:34.802Z,47.7
2019-04-25T23:01:37.276Z,47.8
2019-04-25T23:06:39.831Z,47.8
2019-04-25T23:11:42.149Z,47.8
2019-04-25T23:16:44.595Z,48
2019-04-25T23:21:47.357Z,48.4
2019-04-25T23:26:49.408Z,48.4
2019-04-25T23:31:51.847Z,48.7
2019-04-25T23:36:54.415Z,48.8
2019-04-25T23:41:56.866Z,49.1
2019-04-25T23:46:59.187Z,49
2019-04-25T23:52:01.653Z,49.2
2019-04-25T23:57:04.117Z,49.4
